createdAt,value
2024-05-09T00:01:35.323Z,29.42
2024-05-09T00:04:18.340Z,29.40
2024-05-09T00:07:01.483Z,29.20
2024-05-09T00:09:44.415Z,29.18
2024-05-09T00:12:27.511Z,29.13
2024-05-09T00:15:10.555Z,29.21
2024-05-09T00:17:53.681Z,29.01
2024-05-09T00:20:40.047Z,28.99
2024-05-09T00:23:24.274Z,28.83
2024-05-09T00:26:07.309Z,28.84
2024-05-09T00:28:50.378Z,28.73
2024-05-09T00:31:33.543Z,28.63
2024-05-09T00:34:16.693Z,28.65
2024-05-09T00:36:59.636Z,28.43
2024-05-09T00:39:42.643Z,28.34
2024-05-09T00:42:25.653Z,28.38
2024-05-09T00:45:08.808Z,28.33
2024-05-09T00:47:52.264Z,28.36
2024-05-09T00:50:37.935Z,28.08
2024-05-09T00:53:21.683Z,28.19
2024-05-09T00:56:06.084Z,28.09
2024-05-09T00:58:50.209Z,28.02
2024-05-09T01:01:33.503Z,28.21
2024-05-09T01:04:16.680Z,28.14
2024-05-09T01:06:59.758Z,27.95
2024-05-09T01:09:42.772Z,28.00
2024-05-09T01:12:25.873Z,28.05
2024-05-09T01:15:09.004Z,27.94
2024-05-09T01:17:52.504Z,27.70
2024-05-09T01:20:41.763Z,27.75
2024-05-09T01:23:27.238Z,27.75
2024-05-09T01:26:12.816Z,27.46
2024-05-09T01:28:56.366Z,27.52
2024-05-09T01:31:39.464Z,27.51
2024-05-09T01:34:22.656Z,27.48
2024-05-09T01:37:05.788Z,27.43
2024-05-09T01:39:48.829Z,27.32
2024-05-09T01:42:31.777Z,27.42
2024-05-09T01:45:14.849Z,27.28
2024-05-09T01:48:01.286Z,27.26
2024-05-09T01:50:44.740Z,27.25
2024-05-09T01:53:27.842Z,27.11
2024-05-09T01:56:11.373Z,27.20
2024-05-09T01:58:54.369Z,27.16
2024-05-09T02:01:56.106Z,27.13
2024-05-09T02:04:40.680Z,26.99
2024-05-09T02:07:23.793Z,27.03
2024-05-09T02:10:13.759Z,27.07
2024-05-09T02:12:59.574Z,26.98
2024-05-09T02:15:42.634Z,27.06
2024-05-09T02:18:25.804Z,27.12
2024-05-09T02:21:09.898Z,27.01
2024-05-09T02:23:53.094Z,26.87
2024-05-09T02:26:36.173Z,26.83
2024-05-09T02:29:19.444Z,26.79
2024-05-09T02:32:02.499Z,26.73
2024-05-09T02:34:45.592Z,26.69
2024-05-09T02:37:28.537Z,26.72
2024-05-09T02:40:14.853Z,26.67
2024-05-09T02:43:01.786Z,26.52
2024-05-09T02:45:45.369Z,26.66
2024-05-09T02:48:30.963Z,26.58
2024-05-09T02:51:14.119Z,26.43
2024-05-09T02:53:57.307Z,26.53
2024-05-09T02:56:40.415Z,26.56
2024-05-09T02:59:23.658Z,26.53
2024-05-09T03:02:06.976Z,26.52
2024-05-09T03:04:50.063Z,26.40
2024-05-09T03:07:33.201Z,26.41
2024-05-09T03:10:22.327Z,26.45
2024-05-09T03:13:09.498Z,26.52
2024-05-09T03:15:52.476Z,26.42
2024-05-09T03:18:35.689Z,26.38
2024-05-09T03:21:18.835Z,26.40
2024-05-09T03:24:01.842Z,26.41
2024-05-09T03:26:44.750Z,26.39
2024-05-09T03:29:28.100Z,26.39
2024-05-09T03:32:11.344Z,26.31
2024-05-09T03:34:54.430Z,26.32
2024-05-09T03:37:37.567Z,26.36
2024-05-09T03:40:23.884Z,26.42
2024-05-09T03:43:09.779Z,26.40
2024-05-09T03:45:53.084Z,26.46
2024-05-09T03:48:36.585Z,26.42
2024-05-09T03:51:19.695Z,26.40
2024-05-09T03:54:02.916Z,26.35
2024-05-09T03:56:46.021Z,26.40
2024-05-09T03:59:29.175Z,26.24
2024-05-09T04:02:12.555Z,26.28
2024-05-09T04:04:55.605Z,26.43
2024-05-09T04:07:38.722Z,26.40
2024-05-09T04:10:30.160Z,26.37
2024-05-09T04:13:16.153Z,26.30
2024-05-09T04:15:59.048Z,26.35
2024-05-09T04:18:42.341Z,26.36
2024-05-09T04:21:25.279Z,26.37
2024-05-09T04:24:08.348Z,26.47
2024-05-09T04:26:53.594Z,26.52
2024-05-09T04:29:36.708Z,26.35
2024-05-09T04:32:22.258Z,26.48
2024-05-09T04:35:05.686Z,26.36
2024-05-09T04:37:48.948Z,26.51
2024-05-09T04:40:35.149Z,26.46
2024-05-09T04:43:19.784Z,26.43
2024-05-09T04:46:03.009Z,26.38
2024-05-09T04:48:46.163Z,26.31
2024-05-09T04:51:29.145Z,26.48
2024-05-09T04:54:22.202Z,26.59
2024-05-09T04:57:13.102Z,26.30
2024-05-09T04:59:56.036Z,26.42
2024-05-09T05:02:39.058Z,26.49
2024-05-09T05:05:24.378Z,26.33
2024-05-09T05:08:12.795Z,26.56
2024-05-09T05:10:56.294Z,26.39
2024-05-09T05:13:41.576Z,26.34
2024-05-09T05:16:24.862Z,26.37
2024-05-09T05:19:10.834Z,26.44
2024-05-09T05:21:54.876Z,26.42
2024-05-09T05:24:40.138Z,26.32
2024-05-09T05:27:23.186Z,26.30
2024-05-09T05:30:11.787Z,26.39
2024-05-09T05:32:57.635Z,26.59
2024-05-09T05:35:41.754Z,26.51
2024-05-09T05:38:27.516Z,26.38
2024-05-09T05:41:11.423Z,26.52
2024-05-09T05:43:54.356Z,26.47
2024-05-09T05:46:40.973Z,26.34
2024-05-09T05:49:24.092Z,26.51
2024-05-09T05:52:07.439Z,26.43
2024-05-09T05:54:50.338Z,26.39
2024-05-09T05:57:33.537Z,26.28
2024-05-09T06:00:28.598Z,26.41
2024-05-09T06:03:14.295Z,26.33
2024-05-09T06:05:57.652Z,26.27
2024-05-09T06:08:40.765Z,26.20
2024-05-09T06:11:23.870Z,26.32
2024-05-09T06:14:07.173Z,26.47
2024-05-09T06:16:50.085Z,26.56
2024-05-09T06:19:33.344Z,26.40
2024-05-09T06:22:16.566Z,26.24
2024-05-09T06:24:59.518Z,26.24
2024-05-09T06:27:42.894Z,26.16
2024-05-09T06:30:34.786Z,26.19
2024-05-09T06:33:22.024Z,26.35
2024-05-09T06:36:05.454Z,26.21
2024-05-09T06:38:48.542Z,26.18
2024-05-09T06:41:31.804Z,26.20
2024-05-09T06:44:14.756Z,26.20
2024-05-09T06:46:59.984Z,26.17
2024-05-09T06:49:43.080Z,26.49
2024-05-09T06:52:26.183Z,26.35
2024-05-09T06:55:09.118Z,26.17
2024-05-09T06:57:52.100Z,26.25
2024-05-09T07:00:39.319Z,26.13
2024-05-09T07:03:26.922Z,26.11
2024-05-09T07:06:10.074Z,26.08
2024-05-09T07:08:53.094Z,26.06
2024-05-09T07:11:36.139Z,26.06
2024-05-09T07:14:21.459Z,25.98
2024-05-09T07:17:04.793Z,26.01
2024-05-09T07:19:47.973Z,26.03
2024-05-09T07:22:31.123Z,26.35
2024-05-09T07:25:14.616Z,26.22
2024-05-09T07:27:57.615Z,26.08
2024-05-09T07:30:42.914Z,26.02
2024-05-09T07:33:26.152Z,25.88
2024-05-09T07:36:09.272Z,25.88
2024-05-09T07:38:52.848Z,25.87
2024-05-09T07:41:36.611Z,25.85
2024-05-09T07:44:19.792Z,26.08
2024-05-09T07:48:14.385Z,26.24
2024-05-09T07:55:42.452Z,25.81
2024-05-09T07:58:28.212Z,25.77
2024-05-09T08:01:11.222Z,25.73
2024-05-09T08:03:54.662Z,25.73
2024-05-09T08:06:37.768Z,25.77
2024-05-09T08:09:23.191Z,25.73
2024-05-09T08:12:06.492Z,25.97
2024-05-09T08:14:49.468Z,25.91
2024-05-09T08:17:32.493Z,25.93
2024-05-09T08:20:22.942Z,26.25
2024-05-09T08:23:13.518Z,25.70
2024-05-09T08:25:56.461Z,25.72
2024-05-09T08:28:39.398Z,25.58
2024-05-09T08:31:22.446Z,25.63
2024-05-09T08:34:06.054Z,25.47
2024-05-09T08:36:49.144Z,25.31
2024-05-09T08:39:32.133Z,25.45
2024-05-09T08:42:18.472Z,25.43
2024-05-09T08:45:01.381Z,25.20
2024-05-09T08:47:46.823Z,25.27
2024-05-09T08:50:36.569Z,25.18
2024-05-09T08:53:22.168Z,25.23
2024-05-09T08:56:08.268Z,25.20
2024-05-09T08:58:56.904Z,25.19
2024-05-09T09:01:41.308Z,25.24
2024-05-09T09:04:24.762Z,25.37
2024-05-09T09:07:08.154Z,25.58
2024-05-09T09:09:51.530Z,25.59
2024-05-09T09:12:36.980Z,25.47
2024-05-09T09:15:20.045Z,25.46
2024-05-09T09:18:03.036Z,25.35
2024-05-09T09:20:46.190Z,25.19
2024-05-09T09:23:31.515Z,25.27
2024-05-09T09:26:17.780Z,25.20
2024-05-09T09:29:02.038Z,25.34
2024-05-09T09:31:45.071Z,25.10
2024-05-09T09:34:28.865Z,25.05
2024-05-09T09:37:12.458Z,24.98
2024-05-09T09:39:56.074Z,24.97
2024-05-09T09:42:40.541Z,25.15
2024-05-09T09:45:27.559Z,25.13
2024-05-09T09:48:11.531Z,25.04
2024-05-09T09:50:55.316Z,25.20
2024-05-09T09:53:38.778Z,25.06
2024-05-09T09:56:21.969Z,25.26
2024-05-09T09:59:05.501Z,25.29
2024-05-09T10:01:48.520Z,25.20
2024-05-09T10:04:32.187Z,24.95
2024-05-09T10:07:15.648Z,24.84
2024-05-09T10:10:01.756Z,24.99
2024-05-09T10:13:05.796Z,25.21
2024-05-09T10:15:54.801Z,25.21
2024-05-09T10:18:39.081Z,24.99
2024-05-09T10:21:22.239Z,24.86
2024-05-09T10:24:05.995Z,24.77
2024-05-09T10:26:54.588Z,24.98
2024-05-09T10:29:37.531Z,25.17
2024-05-09T10:32:20.631Z,25.08
2024-05-09T10:35:13.527Z,24.83
2024-05-09T10:37:56.697Z,24.79
2024-05-09T10:40:40.397Z,24.78
2024-05-09T10:43:25.867Z,24.66
2024-05-09T10:46:09.866Z,24.60
2024-05-09T10:48:53.499Z,24.84
2024-05-09T10:51:36.725Z,24.87
2024-05-09T10:54:19.689Z,24.82
2024-05-09T10:57:04.985Z,24.73
2024-05-09T10:59:50.292Z,24.98
2024-05-09T11:02:33.449Z,24.95
2024-05-09T11:05:17.247Z,24.75
2024-05-09T11:08:00.395Z,24.63
2024-05-09T11:10:44.720Z,24.64
2024-05-09T11:13:32.038Z,24.75
2024-05-09T11:16:21.646Z,25.06
2024-05-09T11:19:05.202Z,24.81
2024-05-09T11:21:59.601Z,24.95
2024-05-09T11:24:45.666Z,24.89
2024-05-09T11:27:28.809Z,24.68
2024-05-09T11:30:29.652Z,24.58
2024-05-09T11:33:15.893Z,24.60
2024-05-09T11:35:58.884Z,24.57
2024-05-09T11:38:42.174Z,24.58
2024-05-09T11:41:25.195Z,24.70
2024-05-09T11:44:08.146Z,24.71
2024-05-09T11:46:51.172Z,24.75
2024-05-09T11:49:34.727Z,24.66
2024-05-09T11:52:17.762Z,24.62
2024-05-09T11:55:00.873Z,24.98
2024-05-09T11:57:43.886Z,25.07
2024-05-09T12:00:34.075Z,25.02
2024-05-09T12:03:20.172Z,25.09
2024-05-09T12:06:03.571Z,25.03
2024-05-09T12:08:46.803Z,24.87
2024-05-09T12:11:29.815Z,24.90
2024-05-09T12:14:12.787Z,24.97
2024-05-09T12:16:55.802Z,24.95
2024-05-09T12:19:40.574Z,25.02
2024-05-09T12:22:25.968Z,25.16
2024-05-09T12:25:09.220Z,25.24
2024-05-09T12:27:52.656Z,25.22
2024-05-09T12:30:39.084Z,25.29
2024-05-09T12:33:24.387Z,25.27
2024-05-09T12:36:08.145Z,25.25
2024-05-09T12:38:51.266Z,25.30
2024-05-09T12:41:34.233Z,25.27
2024-05-09T12:44:17.198Z,25.37
2024-05-09T12:47:00.149Z,25.52
2024-05-09T12:49:44.131Z,25.56
2024-05-09T12:52:29.793Z,25.54
2024-05-09T12:55:12.994Z,25.50
2024-05-09T12:57:58.483Z,25.58
2024-05-09T13:00:41.541Z,25.51
2024-05-09T13:03:24.725Z,25.76
2024-05-09T13:06:07.725Z,25.77
2024-05-09T13:08:50.667Z,25.86
2024-05-09T13:11:33.866Z,25.82
2024-05-09T13:14:19.582Z,25.73
2024-05-09T13:17:02.558Z,25.87
2024-05-09T13:19:45.575Z,25.69
2024-05-09T13:22:31.081Z,25.68
2024-05-09T13:25:14.344Z,25.83
2024-05-09T13:27:58.178Z,25.59
2024-05-09T13:30:42.312Z,25.88
2024-05-09T13:33:25.933Z,25.99
2024-05-09T13:36:09.166Z,26.03
2024-05-09T13:38:52.164Z,26.00
2024-05-09T13:41:35.106Z,26.01
2024-05-09T13:44:18.330Z,26.05
2024-05-09T13:47:01.313Z,26.08
2024-05-09T13:49:44.754Z,26.14
2024-05-09T13:52:27.804Z,26.20
2024-05-09T13:55:11.187Z,26.22
2024-05-09T13:57:54.474Z,26.39
2024-05-09T14:00:45.055Z,26.40
2024-05-09T14:03:31.918Z,26.18
2024-05-09T14:06:15.076Z,26.31
2024-05-09T14:08:58.136Z,26.34
2024-05-09T14:11:41.175Z,26.66
2024-05-09T14:14:24.153Z,26.61
2024-05-09T14:17:07.408Z,26.64
2024-05-09T14:19:50.417Z,26.66
2024-05-09T14:22:33.412Z,26.75
2024-05-09T14:25:16.368Z,26.75
2024-05-09T14:27:59.524Z,26.84
2024-05-09T14:30:43.008Z,26.96
2024-05-09T14:33:26.212Z,26.79
2024-05-09T14:36:09.455Z,26.91
2024-05-09T14:38:52.447Z,26.90
2024-05-09T14:41:35.427Z,26.95
2024-05-09T14:44:18.556Z,26.95
2024-05-09T14:47:01.560Z,27.13
2024-05-09T14:49:45.329Z,27.14
2024-05-09T14:52:30.758Z,27.40
2024-05-09T14:55:14.174Z,27.39
2024-05-09T14:57:57.349Z,27.63
2024-05-09T15:00:44.756Z,27.94
2024-05-09T15:03:31.482Z,28.44
2024-05-09T15:06:14.637Z,28.37
2024-05-09T15:09:01.323Z,28.06
2024-05-09T15:11:46.800Z,28.22
2024-05-09T15:14:29.840Z,28.09
2024-05-09T15:17:12.861Z,28.18
2024-05-09T15:19:58.310Z,27.84
2024-05-09T15:22:41.317Z,27.83
2024-05-09T15:25:24.493Z,27.64
2024-05-09T15:28:08.495Z,27.71
2024-05-09T15:30:51.649Z,27.73
2024-05-09T15:33:34.806Z,27.61
2024-05-09T15:36:18.216Z,27.48
2024-05-09T15:39:01.314Z,27.59
2024-05-09T15:41:44.315Z,27.93
2024-05-09T15:44:27.386Z,27.74
2024-05-09T15:47:12.684Z,27.66
2024-05-09T15:49:58.348Z,27.86
2024-05-09T15:52:43.916Z,27.77
2024-05-09T15:55:26.914Z,27.81
2024-05-09T15:58:10.445Z,27.60
2024-05-09T16:00:53.659Z,27.61
2024-05-09T16:03:37.198Z,27.94
2024-05-09T16:06:20.468Z,27.86
2024-05-09T16:09:03.917Z,27.87
2024-05-09T16:11:46.982Z,28.07
2024-05-09T16:14:32.245Z,28.12
2024-05-09T16:17:15.404Z,28.16
2024-05-09T16:19:58.481Z,28.18
2024-05-09T16:22:41.455Z,27.96
2024-05-09T16:25:24.655Z,27.92
2024-05-09T16:28:10.409Z,28.05
2024-05-09T16:30:56.381Z,27.95
2024-05-09T16:33:39.621Z,28.15
2024-05-09T16:36:22.781Z,28.26
2024-05-09T16:39:08.191Z,28.30
2024-05-09T16:41:51.121Z,28.56
2024-05-09T16:44:35.592Z,28.08
2024-05-09T16:47:18.904Z,28.23
2024-05-09T16:50:02.047Z,28.36
2024-05-09T16:52:45.027Z,28.41
2024-05-09T16:55:31.180Z,28.74
2024-05-09T16:58:14.318Z,28.51
2024-05-09T17:00:57.386Z,28.41
2024-05-09T17:03:40.765Z,28.41
2024-05-09T17:06:26.187Z,28.32
2024-05-09T17:09:11.888Z,28.56
2024-05-09T17:11:58.478Z,28.57
2024-05-09T17:14:41.665Z,28.40
2024-05-09T17:17:25.316Z,28.53
2024-05-09T17:20:18.749Z,28.71
2024-05-09T17:23:08.871Z,28.92
2024-05-09T17:25:54.472Z,28.84
2024-05-09T17:28:37.502Z,28.69
2024-05-09T17:31:20.426Z,28.89
2024-05-09T17:34:03.739Z,28.85
2024-05-09T17:36:46.883Z,28.77
2024-05-09T17:39:29.902Z,29.03
2024-05-09T17:42:12.935Z,28.71
2024-05-09T17:44:58.547Z,29.11
2024-05-09T17:47:41.943Z,29.09
2024-05-09T17:50:31.483Z,29.02
2024-05-09T17:53:18.421Z,29.27
2024-05-09T17:56:01.424Z,29.09
2024-05-09T17:58:46.660Z,29.34
2024-05-09T18:01:29.705Z,29.61
2024-05-09T18:04:12.900Z,29.53
2024-05-09T18:06:58.453Z,29.25
2024-05-09T18:09:41.592Z,29.17
2024-05-09T18:12:24.770Z,29.00
2024-05-09T18:15:07.807Z,29.08
2024-05-09T18:17:54.945Z,29.19
2024-05-09T18:20:44.209Z,29.54
2024-05-09T18:23:29.244Z,29.36
2024-05-09T18:26:12.323Z,29.37
2024-05-09T18:28:55.421Z,29.23
2024-05-09T18:31:38.502Z,29.66
2024-05-09T18:34:21.652Z,29.87
2024-05-09T18:37:04.914Z,30.30
2024-05-09T18:39:48.073Z,30.18
2024-05-09T18:42:31.047Z,30.66
2024-05-09T18:45:14.289Z,30.33
2024-05-09T18:47:57.534Z,30.22
2024-05-09T18:50:41.813Z,30.29
2024-05-09T18:53:25.038Z,30.28
2024-05-09T18:56:08.955Z,30.14
2024-05-09T18:58:52.022Z,30.05
2024-05-09T19:01:35.095Z,29.99
2024-05-09T19:04:18.479Z,29.94
2024-05-09T19:07:01.882Z,29.95
2024-05-09T19:09:45.144Z,30.03
2024-05-09T19:12:28.170Z,30.05
2024-05-09T19:15:11.095Z,29.72
2024-05-09T19:17:54.183Z,29.65
2024-05-09T19:20:37.790Z,29.38
2024-05-09T19:23:21.375Z,29.83
2024-05-09T19:26:04.469Z,29.75
2024-05-09T19:28:47.555Z,29.51
2024-05-09T19:31:30.607Z,29.66
2024-05-09T19:34:13.774Z,29.95
2024-05-09T19:36:56.983Z,30.33
2024-05-09T19:39:40.021Z,30.58
2024-05-09T19:42:23.088Z,30.65
2024-05-09T19:45:06.986Z,30.25
2024-05-09T19:47:50.050Z,30.76
2024-05-09T19:50:40.875Z,30.39
2024-05-09T19:53:27.110Z,30.15
2024-05-09T19:56:10.175Z,29.99
2024-05-09T19:58:53.061Z,29.74
2024-05-09T20:01:36.104Z,30.00
2024-05-09T20:04:19.273Z,30.45
2024-05-09T20:07:02.524Z,30.70
2024-05-09T20:09:45.529Z,30.77
2024-05-09T20:12:28.646Z,30.18
2024-05-09T20:15:11.679Z,30.17
2024-05-09T20:17:57.891Z,30.71
2024-05-09T20:20:43.070Z,30.66
2024-05-09T20:23:27.857Z,30.37
2024-05-09T20:26:10.864Z,30.20
2024-05-09T20:28:53.886Z,29.77
2024-05-09T20:31:36.941Z,30.00
2024-05-09T20:34:19.994Z,30.08
2024-05-09T20:37:02.972Z,30.15
2024-05-09T20:39:48.272Z,30.23
2024-05-09T20:42:31.422Z,29.97
2024-05-09T20:45:14.506Z,29.75
2024-05-09T20:47:57.721Z,30.09
2024-05-09T20:50:43.871Z,30.20
2024-05-09T20:53:29.570Z,29.88
2024-05-09T20:56:12.550Z,30.06
2024-05-09T20:58:55.661Z,30.27
2024-05-09T21:01:41.062Z,30.47
2024-05-09T21:04:24.398Z,30.61
2024-05-09T21:07:07.830Z,30.46
2024-05-09T21:09:50.979Z,30.22
2024-05-09T21:12:34.087Z,30.20
2024-05-09T21:15:17.106Z,30.16
2024-05-09T21:18:00.716Z,30.19
2024-05-09T21:20:43.753Z,30.44
2024-05-09T21:23:26.896Z,30.56
2024-05-09T21:26:12.386Z,30.65
2024-05-09T21:28:55.812Z,30.70
2024-05-09T21:31:38.929Z,30.59
2024-05-09T21:34:22.146Z,30.60
2024-05-09T21:37:05.396Z,30.60
2024-05-09T21:39:48.513Z,30.50
2024-05-09T21:42:31.902Z,30.44
2024-05-09T21:45:15.071Z,30.13
2024-05-09T21:47:58.200Z,30.07
2024-05-09T21:50:42.512Z,30.20
2024-05-09T21:53:25.765Z,30.27
2024-05-09T21:56:09.447Z,30.32
2024-05-09T21:58:52.677Z,30.02
2024-05-09T22:01:35.661Z,30.08
2024-05-09T22:04:18.890Z,30.06
2024-05-09T22:07:02.023Z,30.36
2024-05-09T22:09:45.085Z,30.08
2024-05-09T22:12:28.060Z,30.33
2024-05-09T22:15:11.063Z,30.40
2024-05-09T22:17:56.274Z,30.26
2024-05-09T22:20:40.751Z,30.20
2024-05-09T22:23:25.977Z,30.41
2024-05-09T22:26:11.485Z,30.25
2024-05-09T22:28:54.436Z,30.34
2024-05-09T22:31:37.484Z,30.47
2024-05-09T22:34:20.881Z,30.45
2024-05-09T22:37:04.095Z,30.30
2024-05-09T22:39:47.195Z,30.20
2024-05-09T22:42:30.213Z,29.92
2024-05-09T22:45:13.239Z,29.95
2024-05-09T22:47:56.425Z,30.12
2024-05-09T22:50:39.599Z,29.95
2024-05-09T22:53:23.577Z,30.16
2024-05-09T22:56:12.462Z,29.92
2024-05-09T22:58:56.679Z,30.03
2024-05-09T23:01:39.961Z,30.04
2024-05-09T23:04:23.181Z,30.01
2024-05-09T23:07:06.308Z,30.08
2024-05-09T23:09:49.517Z,30.07
2024-05-09T23:12:32.607Z,29.99
2024-05-09T23:15:15.727Z,30.05
2024-05-09T23:17:59.131Z,30.13
2024-05-09T23:20:42.221Z,29.89
2024-05-09T23:23:25.430Z,30.04
2024-05-09T23:26:08.438Z,30.07
2024-05-09T23:28:51.420Z,29.69
2024-05-09T23:31:34.453Z,29.54
2024-05-09T23:34:20.292Z,29.63
2024-05-09T23:37:03.807Z,29.58
2024-05-09T23:39:46.957Z,29.53
2024-05-09T23:42:29.910Z,29.28
2024-05-09T23:45:12.909Z,29.32
2024-05-09T23:47:56.078Z,29.19
2024-05-09T23:50:40.603Z,29.20
2024-05-09T23:53:24.308Z,29.14
2024-05-09T23:56:07.985Z,29.03
2024-05-09T23:58:51.072Z,28.99
